National Weather Service Raw Text Product

Displaying AFOS PIL: TAFMCW Received: 2018-01-12 03:36 UTC


617 
FTUS43 KDMX 120336 AAA
TAFMCW
TAF AMD
KMCW 120336Z 1204/1224 32022G30KT 6SM BLSN BKN015
     FM120600 33022G30KT P6SM SCT100
     FM120900 33015KT P6SM SKC=